sensor_id;sensor_type;location;lat;lon;timestamp;P1;durP1;ratioP1;P2;durP2;ratioP2
6053;SDS011;3055;50.886;14.814;2024-03-29T00:00:52;3.63;;;2.77;;
6053;SDS011;3055;50.886;14.814;2024-03-29T00:03:18;2.87;;;2.63;;
6053;SDS011;3055;50.886;14.814;2024-03-29T00:05:44;3.13;;;2.80;;
6053;SDS011;3055;50.886;14.814;2024-03-29T00:08:10;4.13;;;2.80;;
6053;SDS011;3055;50.886;14.814;2024-03-29T00:10:36;3.77;;;2.80;;
6053;SDS011;3055;50.886;14.814;2024-03-29T00:13:04;3.80;;;3.20;;
6053;SDS011;3055;50.886;14.814;2024-03-29T00:15:31;2.80;;;2.60;;
6053;SDS011;3055;50.886;14.814;2024-03-29T00:17:57;2.60;;;2.40;;
6053;SDS011;3055;50.886;14.814;2024-03-29T00:20:23;2.90;;;2.60;;
6053;SDS011;3055;50.886;14.814;2024-03-29T00:22:49;4.07;;;3.23;;
6053;SDS011;3055;50.886;14.814;2024-03-29T00:25:15;3.67;;;3.00;;
6053;SDS011;3055;50.886;14.814;2024-03-29T00:27:41;2.90;;;2.60;;
6053;SDS011;3055;50.886;14.814;2024-03-29T00:30:09;2.93;;;2.73;;
6053;SDS011;3055;50.886;14.814;2024-03-29T00:32:35;3.07;;;2.80;;
6053;SDS011;3055;50.886;14.814;2024-03-29T00:35:01;2.77;;;2.57;;
6053;SDS011;3055;50.886;14.814;2024-03-29T00:37:28;3.63;;;2.70;;
6053;SDS011;3055;50.886;14.814;2024-03-29T00:39:54;3.10;;;2.90;;
6053;SDS011;3055;50.886;14.814;2024-03-29T00:42:20;3.70;;;3.10;;
6053;SDS011;3055;50.886;14.814;2024-03-29T00:44:46;3.53;;;2.90;;
6053;SDS011;3055;50.886;14.814;2024-03-29T00:47:14;3.13;;;2.87;;
6053;SDS011;3055;50.886;14.814;2024-03-29T00:49:40;3.30;;;3.00;;
6053;SDS011;3055;50.886;14.814;2024-03-29T00:52:06;3.53;;;3.23;;
6053;SDS011;3055;50.886;14.814;2024-03-29T00:54:32;3.33;;;2.97;;
6053;SDS011;3055;50.886;14.814;2024-03-29T00:56:58;3.37;;;2.90;;
6053;SDS011;3055;50.886;14.814;2024-03-29T00:59:24;3.30;;;3.00;;
6053;SDS011;3055;50.886;14.814;2024-03-29T01:01:50;3.20;;;2.90;;
6053;SDS011;3055;50.886;14.814;2024-03-29T01:04:17;3.53;;;3.20;;
6053;SDS011;3055;50.886;14.814;2024-03-29T01:06:44;3.30;;;2.70;;
6053;SDS011;3055;50.886;14.814;2024-03-29T01:09:10;3.40;;;3.10;;
6053;SDS011;3055;50.886;14.814;2024-03-29T01:11:36;3.47;;;3.17;;
6053;SDS011;3055;50.886;14.814;2024-03-29T01:14:03;3.40;;;2.50;;
6053;SDS011;3055;50.886;14.814;2024-03-29T01:16:29;3.17;;;2.87;;
6053;SDS011;3055;50.886;14.814;2024-03-29T01:18:56;3.67;;;3.37;;
6053;SDS011;3055;50.886;14.814;2024-03-29T01:21:24;3.20;;;2.77;;
6053;SDS011;3055;50.886;14.814;2024-03-29T01:23:51;2.97;;;2.77;;
6053;SDS011;3055;50.886;14.814;2024-03-29T01:26:17;3.10;;;2.90;;
6053;SDS011;3055;50.886;14.814;2024-03-29T01:28:43;3.40;;;3.10;;
6053;SDS011;3055;50.886;14.814;2024-03-29T01:31:09;3.60;;;2.83;;
6053;SDS011;3055;50.886;14.814;2024-03-29T01:33:35;2.97;;;2.77;;
6053;SDS011;3055;50.886;14.814;2024-03-29T01:36:01;3.10;;;2.90;;
6053;SDS011;3055;50.886;14.814;2024-03-29T01:38:29;3.97;;;2.90;;
6053;SDS011;3055;50.886;14.814;2024-03-29T01:40:55;3.17;;;2.87;;
6053;SDS011;3055;50.886;14.814;2024-03-29T01:43:21;3.30;;;3.00;;
6053;SDS011;3055;50.886;14.814;2024-03-29T01:45:49;4.00;;;3.60;;
6053;SDS011;3055;50.886;14.814;2024-03-29T01:48:19;3.20;;;2.90;;
6053;SDS011;3055;50.886;14.814;2024-03-29T01:50:48;3.27;;;3.07;;
6053;SDS011;3055;50.886;14.814;2024-03-29T01:53:18;3.60;;;3.30;;
6053;SDS011;3055;50.886;14.814;2024-03-29T01:55:47;3.00;;;2.80;;
6053;SDS011;3055;50.886;14.814;2024-03-29T01:58:14;2.87;;;2.60;;
6053;SDS011;3055;50.886;14.814;2024-03-29T02:00:44;3.40;;;3.10;;
6053;SDS011;3055;50.886;14.814;2024-03-29T02:03:18;3.87;;;2.93;;
6053;SDS011;3055;50.886;14.814;2024-03-29T02:05:45;3.57;;;3.27;;
6053;SDS011;3055;50.886;14.814;2024-03-29T02:08:13;3.47;;;2.90;;
6053;SDS011;3055;50.886;14.814;2024-03-29T02:10:40;4.73;;;2.70;;
6053;SDS011;3055;50.886;14.814;2024-03-29T02:13:09;5.07;;;2.50;;
6053;SDS011;3055;50.886;14.814;2024-03-29T02:15:36;2.80;;;2.60;;
6053;SDS011;3055;50.886;14.814;2024-03-29T02:18:05;2.73;;;2.53;;
6053;SDS011;3055;50.886;14.814;2024-03-29T02:20:31;3.17;;;2.87;;
6053;SDS011;3055;50.886;14.814;2024-03-29T02:23:00;3.63;;;2.80;;
6053;SDS011;3055;50.886;14.814;2024-03-29T02:25:32;3.20;;;2.60;;
6053;SDS011;3055;50.886;14.814;2024-03-29T02:27:59;2.77;;;2.57;;
6053;SDS011;3055;50.886;14.814;2024-03-29T02:30:28;3.57;;;2.43;;
6053;SDS011;3055;50.886;14.814;2024-03-29T02:32:56;2.80;;;2.50;;
6053;SDS011;3055;50.886;14.814;2024-03-29T02:35:23;2.80;;;2.60;;
6053;SDS011;3055;50.886;14.814;2024-03-29T02:37:50;3.87;;;2.70;;
6053;SDS011;3055;50.886;14.814;2024-03-29T02:40:17;2.53;;;2.33;;
6053;SDS011;3055;50.886;14.814;2024-03-29T02:42:47;3.03;;;2.27;;
6053;SDS011;3055;50.886;14.814;2024-03-29T02:45:15;2.83;;;2.63;;
6053;SDS011;3055;50.886;14.814;2024-03-29T02:47:42;3.40;;;2.70;;
6053;SDS011;3055;50.886;14.814;2024-03-29T02:50:09;2.90;;;2.60;;
6053;SDS011;3055;50.886;14.814;2024-03-29T02:52:37;2.50;;;2.30;;
6053;SDS011;3055;50.886;14.814;2024-03-29T02:55:03;2.50;;;2.30;;
6053;SDS011;3055;50.886;14.814;2024-03-29T02:57:31;2.60;;;2.40;;
6053;SDS011;3055;50.886;14.814;2024-03-29T02:59:58;2.63;;;2.43;;
6053;SDS011;3055;50.886;14.814;2024-03-29T03:02:25;2.70;;;2.50;;
6053;SDS011;3055;50.886;14.814;2024-03-29T03:04:51;2.60;;;2.40;;
6053;SDS011;3055;50.886;14.814;2024-03-29T03:07:19;3.07;;;2.67;;
6053;SDS011;3055;50.886;14.814;2024-03-29T03:10:03;2.70;;;2.50;;
6053;SDS011;3055;50.886;14.814;2024-03-29T03:12:48;3.83;;;2.70;;
6053;SDS011;3055;50.886;14.814;2024-03-29T03:15:16;2.67;;;2.47;;
6053;SDS011;3055;50.886;14.814;2024-03-29T03:17:44;3.37;;;2.70;;
6053;SDS011;3055;50.886;14.814;2024-03-29T03:20:10;2.90;;;2.60;;
6053;SDS011;3055;50.886;14.814;2024-03-29T03:22:38;2.87;;;2.57;;
6053;SDS011;3055;50.886;14.814;2024-03-29T03:25:05;2.60;;;2.40;;
6053;SDS011;3055;50.886;14.814;2024-03-29T03:27:32;2.80;;;2.43;;
6053;SDS011;3055;50.886;14.814;2024-03-29T03:29:58;4.50;;;3.00;;
6053;SDS011;3055;50.886;14.814;2024-03-29T03:32:27;3.20;;;2.90;;
6053;SDS011;3055;50.886;14.814;2024-03-29T03:34:53;4.40;;;2.70;;
6053;SDS011;3055;50.886;14.814;2024-03-29T03:37:20;2.90;;;2.60;;
6053;SDS011;3055;50.886;14.814;2024-03-29T03:39:46;2.67;;;2.47;;
6053;SDS011;3055;50.886;14.814;2024-03-29T03:42:13;3.13;;;2.53;;
6053;SDS011;3055;50.886;14.814;2024-03-29T03:44:39;4.03;;;3.00;;
6053;SDS011;3055;50.886;14.814;2024-03-29T03:47:06;2.90;;;2.70;;
6053;SDS011;3055;50.886;14.814;2024-03-29T03:49:33;3.70;;;2.53;;
6053;SDS011;3055;50.886;14.814;2024-03-29T03:52:00;3.53;;;3.23;;
6053;SDS011;3055;50.886;14.814;2024-03-29T03:54:27;3.43;;;2.67;;
6053;SDS011;3055;50.886;14.814;2024-03-29T03:56:54;2.83;;;2.50;;
6053;SDS011;3055;50.886;14.814;2024-03-29T03:59:20;3.27;;;2.97;;
6053;SDS011;3055;50.886;14.814;2024-03-29T04:01:47;3.00;;;2.73;;
6053;SDS011;3055;50.886;14.814;2024-03-29T04:04:16;3.60;;;2.40;;
6053;SDS011;3055;50.886;14.814;2024-03-29T04:06:45;3.30;;;2.90;;
6053;SDS011;3055;50.886;14.814;2024-03-29T04:09:11;4.67;;;3.33;;
6053;SDS011;3055;50.886;14.814;2024-03-29T04:11:41;2.73;;;2.50;;
6053;SDS011;3055;50.886;14.814;2024-03-29T04:14:07;4.23;;;3.10;;
6053;SDS011;3055;50.886;14.814;2024-03-29T04:16:34;2.90;;;2.60;;
6053;SDS011;3055;50.886;14.814;2024-03-29T04:19:00;2.90;;;2.60;;
6053;SDS011;3055;50.886;14.814;2024-03-29T04:21:27;2.60;;;2.40;;
6053;SDS011;3055;50.886;14.814;2024-03-29T04:23:55;2.80;;;2.60;;
6053;SDS011;3055;50.886;14.814;2024-03-29T04:26:22;2.87;;;2.63;;
6053;SDS011;3055;50.886;14.814;2024-03-29T04:28:48;3.03;;;2.73;;
6053;SDS011;3055;50.886;14.814;2024-03-29T04:31:15;2.37;;;2.17;;
6053;SDS011;3055;50.886;14.814;2024-03-29T04:33:41;2.90;;;2.50;;
6053;SDS011;3055;50.886;14.814;2024-03-29T04:36:08;5.63;;;2.87;;
6053;SDS011;3055;50.886;14.814;2024-03-29T04:38:34;2.40;;;2.20;;
6053;SDS011;3055;50.886;14.814;2024-03-29T04:41:03;2.77;;;2.57;;
6053;SDS011;3055;50.886;14.814;2024-03-29T04:43:30;3.07;;;2.37;;
6053;SDS011;3055;50.886;14.814;2024-03-29T04:46:03;3.07;;;2.33;;
6053;SDS011;3055;50.886;14.814;2024-03-29T04:48:34;2.93;;;2.40;;
6053;SDS011;3055;50.886;14.814;2024-03-29T04:51:01;3.10;;;2.57;;
6053;SDS011;3055;50.886;14.814;2024-03-29T04:53:28;2.70;;;2.50;;
6053;SDS011;3055;50.886;14.814;2024-03-29T04:55:55;2.50;;;2.30;;
6053;SDS011;3055;50.886;14.814;2024-03-29T04:58:24;3.33;;;2.10;;
6053;SDS011;3055;50.886;14.814;2024-03-29T05:00:52;4.33;;;3.20;;
6053;SDS011;3055;50.886;14.814;2024-03-29T05:03:19;3.10;;;2.70;;
6053;SDS011;3055;50.886;14.814;2024-03-29T05:05:48;2.40;;;2.20;;
6053;SDS011;3055;50.886;14.814;2024-03-29T05:08:16;2.73;;;2.53;;
6053;SDS011;3055;50.886;14.814;2024-03-29T05:10:44;2.90;;;2.57;;
6053;SDS011;3055;50.886;14.814;2024-03-29T05:13:11;3.27;;;2.43;;
6053;SDS011;3055;50.886;14.814;2024-03-29T05:15:40;3.30;;;2.50;;
6053;SDS011;3055;50.886;14.814;2024-03-29T05:18:07;2.50;;;2.30;;
6053;SDS011;3055;50.886;14.814;2024-03-29T05:20:34;2.60;;;2.40;;
6053;SDS011;3055;50.886;14.814;2024-03-29T05:23:01;2.77;;;2.40;;
6053;SDS011;3055;50.886;14.814;2024-03-29T05:25:29;3.13;;;2.23;;
6053;SDS011;3055;50.886;14.814;2024-03-29T05:27:56;2.30;;;2.10;;
6053;SDS011;3055;50.886;14.814;2024-03-29T05:30:23;1.97;;;1.87;;
6053;SDS011;3055;50.886;14.814;2024-03-29T05:32:51;2.47;;;2.20;;
6053;SDS011;3055;50.886;14.814;2024-03-29T05:35:18;2.40;;;2.20;;
6053;SDS011;3055;50.886;14.814;2024-03-29T05:37:45;2.33;;;2.10;;
6053;SDS011;3055;50.886;14.814;2024-03-29T05:40:16;2.77;;;2.30;;
6053;SDS011;3055;50.886;14.814;2024-03-29T05:42:43;2.70;;;2.30;;
6053;SDS011;3055;50.886;14.814;2024-03-29T05:45:21;2.87;;;2.07;;
6053;SDS011;3055;50.886;14.814;2024-03-29T05:47:52;2.70;;;2.30;;
6053;SDS011;3055;50.886;14.814;2024-03-29T05:50:19;3.33;;;2.27;;
6053;SDS011;3055;50.886;14.814;2024-03-29T05:52:47;2.47;;;2.00;;
6053;SDS011;3055;50.886;14.814;2024-03-29T05:55:14;2.77;;;2.10;;
6053;SDS011;3055;50.886;14.814;2024-03-29T05:57:41;3.83;;;2.23;;
6053;SDS011;3055;50.886;14.814;2024-03-29T06:00:10;2.10;;;1.97;;
6053;SDS011;3055;50.886;14.814;2024-03-29T06:02:39;2.87;;;2.50;;
6053;SDS011;3055;50.886;14.814;2024-03-29T06:05:09;2.40;;;2.20;;
6053;SDS011;3055;50.886;14.814;2024-03-29T06:07:36;2.23;;;2.03;;
6053;SDS011;3055;50.886;14.814;2024-03-29T06:10:04;2.10;;;2.00;;
6053;SDS011;3055;50.886;14.814;2024-03-29T06:12:33;3.17;;;2.00;;
6053;SDS011;3055;50.886;14.814;2024-03-29T06:15:00;2.77;;;2.07;;
6053;SDS011;3055;50.886;14.814;2024-03-29T06:17:44;1.90;;;1.80;;
6053;SDS011;3055;50.886;14.814;2024-03-29T06:20:13;2.90;;;1.83;;
6053;SDS011;3055;50.886;14.814;2024-03-29T06:22:40;2.30;;;2.10;;
6053;SDS011;3055;50.886;14.814;2024-03-29T06:25:07;2.10;;;1.87;;
6053;SDS011;3055;50.886;14.814;2024-03-29T06:27:35;2.50;;;1.87;;
6053;SDS011;3055;50.886;14.814;2024-03-29T06:30:03;1.93;;;1.80;;
6053;SDS011;3055;50.886;14.814;2024-03-29T06:32:33;2.90;;;1.83;;
6053;SDS011;3055;50.886;14.814;2024-03-29T06:35:00;2.80;;;1.87;;
6053;SDS011;3055;50.886;14.814;2024-03-29T06:37:29;2.93;;;1.83;;
6053;SDS011;3055;50.886;14.814;2024-03-29T06:39:56;2.23;;;2.03;;
6053;SDS011;3055;50.886;14.814;2024-03-29T06:42:23;3.10;;;1.93;;
6053;SDS011;3055;50.886;14.814;2024-03-29T06:44:50;2.83;;;2.30;;
6053;SDS011;3055;50.886;14.814;2024-03-29T06:47:19;3.70;;;2.27;;
6053;SDS011;3055;50.886;14.814;2024-03-29T06:49:47;3.37;;;2.00;;
6053;SDS011;3055;50.886;14.814;2024-03-29T06:52:14;2.00;;;1.80;;
6053;SDS011;3055;50.886;14.814;2024-03-29T06:54:42;2.73;;;2.00;;
6053;SDS011;3055;50.886;14.814;2024-03-29T06:57:09;2.53;;;2.00;;
6053;SDS011;3055;50.886;14.814;2024-03-29T06:59:40;1.83;;;1.73;;
6053;SDS011;3055;50.886;14.814;2024-03-29T07:02:07;2.40;;;2.07;;
6053;SDS011;3055;50.886;14.814;2024-03-29T07:04:35;2.20;;;2.00;;
6053;SDS011;3055;50.886;14.814;2024-03-29T07:07:03;2.93;;;2.23;;
6053;SDS011;3055;50.886;14.814;2024-03-29T07:09:30;2.60;;;2.40;;
6053;SDS011;3055;50.886;14.814;2024-03-29T07:11:58;4.77;;;2.03;;
6053;SDS011;3055;50.886;14.814;2024-03-29T07:14:25;2.17;;;2.00;;
6053;SDS011;3055;50.886;14.814;2024-03-29T07:16:53;3.07;;;2.17;;
6053;SDS011;3055;50.886;14.814;2024-03-29T07:19:22;1.87;;;1.73;;
6053;SDS011;3055;50.886;14.814;2024-03-29T07:21:49;2.30;;;2.10;;
6053;SDS011;3055;50.886;14.814;2024-03-29T07:24:18;3.27;;;2.00;;
6053;SDS011;3055;50.886;14.814;2024-03-29T07:26:46;1.90;;;1.80;;
6053;SDS011;3055;50.886;14.814;2024-03-29T07:29:14;3.20;;;2.37;;
6053;SDS011;3055;50.886;14.814;2024-03-29T07:31:41;2.63;;;2.10;;
6053;SDS011;3055;50.886;14.814;2024-03-29T07:34:09;2.40;;;2.20;;
6053;SDS011;3055;50.886;14.814;2024-03-29T07:36:36;2.20;;;2.00;;
6053;SDS011;3055;50.886;14.814;2024-03-29T07:39:05;2.57;;;2.37;;
6053;SDS011;3055;50.886;14.814;2024-03-29T07:41:33;3.40;;;2.00;;
6053;SDS011;3055;50.886;14.814;2024-03-29T07:44:00;2.63;;;2.00;;
6053;SDS011;3055;50.886;14.814;2024-03-29T07:46:32;2.27;;;2.00;;
6053;SDS011;3055;50.886;14.814;2024-03-29T07:49:00;3.67;;;2.07;;
6053;SDS011;3055;50.886;14.814;2024-03-29T07:51:27;1.90;;;1.80;;
6053;SDS011;3055;50.886;14.814;2024-03-29T07:53:54;2.77;;;2.00;;
6053;SDS011;3055;50.886;14.814;2024-03-29T07:56:21;2.07;;;1.83;;
6053;SDS011;3055;50.886;14.814;2024-03-29T07:58:50;3.50;;;2.07;;
6053;SDS011;3055;50.886;14.814;2024-03-29T08:01:19;2.00;;;1.80;;
6053;SDS011;3055;50.886;14.814;2024-03-29T08:03:49;1.70;;;1.60;;
6053;SDS011;3055;50.886;14.814;2024-03-29T08:06:18;3.17;;;1.83;;
6053;SDS011;3055;50.886;14.814;2024-03-29T08:08:44;2.20;;;1.90;;
6053;SDS011;3055;50.886;14.814;2024-03-29T08:11:11;1.97;;;1.83;;
6053;SDS011;3055;50.886;14.814;2024-03-29T08:13:39;3.17;;;2.07;;
6053;SDS011;3055;50.886;14.814;2024-03-29T08:16:07;3.47;;;1.63;;
6053;SDS011;3055;50.886;14.814;2024-03-29T08:18:36;1.97;;;1.80;;
6053;SDS011;3055;50.886;14.814;2024-03-29T08:21:04;1.83;;;1.60;;
6053;SDS011;3055;50.886;14.814;2024-03-29T08:23:36;1.70;;;1.60;;
6053;SDS011;3055;50.886;14.814;2024-03-29T08:26:04;3.83;;;1.40;;
6053;SDS011;3055;50.886;14.814;2024-03-29T08:28:32;2.03;;;1.90;;
6053;SDS011;3055;50.886;14.814;2024-03-29T08:31:00;2.17;;;1.90;;
6053;SDS011;3055;50.886;14.814;2024-03-29T08:33:29;2.80;;;1.80;;
6053;SDS011;3055;50.886;14.814;2024-03-29T08:35:56;1.93;;;1.80;;
6053;SDS011;3055;50.886;14.814;2024-03-29T08:38:25;1.93;;;1.60;;
6053;SDS011;3055;50.886;14.814;2024-03-29T08:40:52;2.93;;;2.20;;
6053;SDS011;3055;50.886;14.814;2024-03-29T08:43:19;1.57;;;1.47;;
6053;SDS011;3055;50.886;14.814;2024-03-29T08:45:46;2.93;;;1.50;;
6053;SDS011;3055;50.886;14.814;2024-03-29T08:48:14;1.80;;;1.70;;
6053;SDS011;3055;50.886;14.814;2024-03-29T08:50:41;1.90;;;1.63;;
6053;SDS011;3055;50.886;14.814;2024-03-29T08:53:08;2.87;;;2.30;;
6053;SDS011;3055;50.886;14.814;2024-03-29T08:55:37;1.73;;;1.50;;
6053;SDS011;3055;50.886;14.814;2024-03-29T08:58:05;2.17;;;1.93;;
6053;SDS011;3055;50.886;14.814;2024-03-29T09:00:33;2.07;;;1.50;;
6053;SDS011;3055;50.886;14.814;2024-03-29T09:03:00;2.80;;;1.70;;
6053;SDS011;3055;50.886;14.814;2024-03-29T09:05:27;2.47;;;1.77;;
6053;SDS011;3055;50.886;14.814;2024-03-29T09:07:54;2.00;;;1.60;;
6053;SDS011;3055;50.886;14.814;2024-03-29T09:10:22;1.53;;;1.40;;
6053;SDS011;3055;50.886;14.814;2024-03-29T09:12:51;1.87;;;1.60;;
6053;SDS011;3055;50.886;14.814;2024-03-29T09:15:18;1.70;;;1.60;;
6053;SDS011;3055;50.886;14.814;2024-03-29T09:17:45;2.10;;;1.90;;
6053;SDS011;3055;50.886;14.814;2024-03-29T09:20:13;1.73;;;1.60;;
6053;SDS011;3055;50.886;14.814;2024-03-29T09:22:40;2.23;;;1.80;;
6053;SDS011;3055;50.886;14.814;2024-03-29T09:25:08;1.50;;;1.40;;
6053;SDS011;3055;50.886;14.814;2024-03-29T09:27:38;2.50;;;1.40;;
6053;SDS011;3055;50.886;14.814;2024-03-29T09:30:10;1.83;;;1.53;;
6053;SDS011;3055;50.886;14.814;2024-03-29T09:32:38;2.70;;;1.40;;
6053;SDS011;3055;50.886;14.814;2024-03-29T09:35:05;1.33;;;1.30;;
6053;SDS011;3055;50.886;14.814;2024-03-29T09:37:33;2.73;;;1.57;;
6053;SDS011;3055;50.886;14.814;2024-03-29T09:40:01;1.63;;;1.40;;
6053;SDS011;3055;50.886;14.814;2024-03-29T09:42:31;2.07;;;1.60;;
6053;SDS011;3055;50.886;14.814;2024-03-29T09:44:59;1.53;;;1.43;;
6053;SDS011;3055;50.886;14.814;2024-03-29T09:47:31;3.33;;;2.20;;
6053;SDS011;3055;50.886;14.814;2024-03-29T09:49:59;2.63;;;1.77;;
6053;SDS011;3055;50.886;14.814;2024-03-29T09:52:29;2.90;;;1.50;;
6053;SDS011;3055;50.886;14.814;2024-03-29T09:54:57;2.23;;;1.70;;
6053;SDS011;3055;50.886;14.814;2024-03-29T09:57:26;2.07;;;1.47;;
6053;SDS011;3055;50.886;14.814;2024-03-29T09:59:55;1.37;;;1.27;;
6053;SDS011;3055;50.886;14.814;2024-03-29T10:02:24;5.60;;;4.83;;
6053;SDS011;3055;50.886;14.814;2024-03-29T10:04:56;4.30;;;2.73;;
6053;SDS011;3055;50.886;14.814;2024-03-29T10:07:28;2.53;;;2.33;;
6053;SDS011;3055;50.886;14.814;2024-03-29T10:09:57;6.50;;;6.00;;
6053;SDS011;3055;50.886;14.814;2024-03-29T10:12:27;1.87;;;1.30;;
6053;SDS011;3055;50.886;14.814;2024-03-29T10:14:54;1.50;;;1.40;;
6053;SDS011;3055;50.886;14.814;2024-03-29T10:17:30;2.27;;;1.73;;
6053;SDS011;3055;50.886;14.814;2024-03-29T10:20:00;1.70;;;1.13;;
6053;SDS011;3055;50.886;14.814;2024-03-29T10:22:28;2.00;;;1.43;;
6053;SDS011;3055;50.886;14.814;2024-03-29T10:24:56;2.50;;;1.57;;
6053;SDS011;3055;50.886;14.814;2024-03-29T10:27:24;1.43;;;1.33;;
6053;SDS011;3055;50.886;14.814;2024-03-29T10:29:52;3.77;;;1.73;;
6053;SDS011;3055;50.886;14.814;2024-03-29T10:32:19;1.47;;;1.30;;
6053;SDS011;3055;50.886;14.814;2024-03-29T10:34:48;2.60;;;1.27;;
6053;SDS011;3055;50.886;14.814;2024-03-29T10:37:17;1.60;;;1.30;;
6053;SDS011;3055;50.886;14.814;2024-03-29T10:39:50;3.23;;;1.50;;
6053;SDS011;3055;50.886;14.814;2024-03-29T10:42:18;2.67;;;1.90;;
6053;SDS011;3055;50.886;14.814;2024-03-29T10:44:48;1.63;;;1.50;;
6053;SDS011;3055;50.886;14.814;2024-03-29T10:47:17;1.83;;;1.27;;
6053;SDS011;3055;50.886;14.814;2024-03-29T10:49:46;1.70;;;1.40;;
6053;SDS011;3055;50.886;14.814;2024-03-29T10:52:18;1.80;;;1.40;;
6053;SDS011;3055;50.886;14.814;2024-03-29T10:54:47;1.37;;;1.27;;
6053;SDS011;3055;50.886;14.814;2024-03-29T10:57:16;2.00;;;1.37;;
6053;SDS011;3055;50.886;14.814;2024-03-29T10:59:49;1.30;;;1.20;;
6053;SDS011;3055;50.886;14.814;2024-03-29T11:02:27;2.20;;;1.20;;
6053;SDS011;3055;50.886;14.814;2024-03-29T11:04:58;1.37;;;1.27;;
6053;SDS011;3055;50.886;14.814;2024-03-29T11:07:32;3.30;;;1.70;;
6053;SDS011;3055;50.886;14.814;2024-03-29T11:10:03;3.33;;;1.40;;
6053;SDS011;3055;50.886;14.814;2024-03-29T11:12:35;2.80;;;1.10;;
6053;SDS011;3055;50.886;14.814;2024-03-29T11:15:22;1.30;;;1.00;;
6053;SDS011;3055;50.886;14.814;2024-03-29T11:17:54;1.30;;;1.20;;
6053;SDS011;3055;50.886;14.814;2024-03-29T11:20:22;2.07;;;1.20;;
6053;SDS011;3055;50.886;14.814;2024-03-29T11:23:00;2.60;;;1.33;;
6053;SDS011;3055;50.886;14.814;2024-03-29T11:25:41;2.83;;;1.37;;
6053;SDS011;3055;50.886;14.814;2024-03-29T11:28:10;2.33;;;1.20;;
6053;SDS011;3055;50.886;14.814;2024-03-29T11:30:41;1.37;;;1.27;;
6053;SDS011;3055;50.886;14.814;2024-03-29T11:33:28;2.10;;;1.10;;
6053;SDS011;3055;50.886;14.814;2024-03-29T11:35:56;1.30;;;1.20;;
6053;SDS011;3055;50.886;14.814;2024-03-29T11:38:32;1.93;;;1.13;;
6053;SDS011;3055;50.886;14.814;2024-03-29T11:41:01;1.93;;;1.10;;
6053;SDS011;3055;50.886;14.814;2024-03-29T11:43:32;1.20;;;1.10;;
6053;SDS011;3055;50.886;14.814;2024-03-29T11:46:00;1.20;;;1.10;;
6053;SDS011;3055;50.886;14.814;2024-03-29T11:48:28;1.60;;;0.90;;
6053;SDS011;3055;50.886;14.814;2024-03-29T11:50:57;2.20;;;1.13;;
6053;SDS011;3055;50.886;14.814;2024-03-29T11:53:25;1.67;;;1.30;;
6053;SDS011;3055;50.886;14.814;2024-03-29T11:55:56;1.70;;;1.00;;
6053;SDS011;3055;50.886;14.814;2024-03-29T11:58:24;1.27;;;1.17;;
6053;SDS011;3055;50.886;14.814;2024-03-29T12:00:53;3.00;;;1.20;;
6053;SDS011;3055;50.886;14.814;2024-03-29T12:03:21;1.63;;;1.17;;
6053;SDS011;3055;50.886;14.814;2024-03-29T12:05:50;2.00;;;1.37;;
6053;SDS011;3055;50.886;14.814;2024-03-29T12:08:19;1.40;;;1.30;;
6053;SDS011;3055;50.886;14.814;2024-03-29T12:10:47;1.47;;;1.37;;
6053;SDS011;3055;50.886;14.814;2024-03-29T12:13:16;1.20;;;1.10;;
6053;SDS011;3055;50.886;14.814;2024-03-29T12:15:44;1.80;;;1.30;;
6053;SDS011;3055;50.886;14.814;2024-03-29T12:18:11;1.20;;;1.10;;
6053;SDS011;3055;50.886;14.814;2024-03-29T12:20:41;1.73;;;1.07;;
6053;SDS011;3055;50.886;14.814;2024-03-29T12:23:11;2.33;;;1.00;;
6053;SDS011;3055;50.886;14.814;2024-03-29T12:25:39;1.33;;;0.93;;
6053;SDS011;3055;50.886;14.814;2024-03-29T12:28:07;1.23;;;1.13;;
6053;SDS011;3055;50.886;14.814;2024-03-29T12:30:37;1.77;;;1.20;;
6053;SDS011;3055;50.886;14.814;2024-03-29T12:33:07;1.00;;;0.90;;
6053;SDS011;3055;50.886;14.814;2024-03-29T12:35:35;0.97;;;0.90;;
6053;SDS011;3055;50.886;14.814;2024-03-29T12:38:03;1.27;;;1.10;;
6053;SDS011;3055;50.886;14.814;2024-03-29T12:40:32;2.23;;;1.00;;
6053;SDS011;3055;50.886;14.814;2024-03-29T12:43:03;1.53;;;0.90;;
6053;SDS011;3055;50.886;14.814;2024-03-29T12:45:31;1.50;;;0.90;;
6053;SDS011;3055;50.886;14.814;2024-03-29T12:47:59;1.37;;;1.20;;
6053;SDS011;3055;50.886;14.814;2024-03-29T12:50:28;1.20;;;1.07;;
6053;SDS011;3055;50.886;14.814;2024-03-29T12:52:56;1.27;;;1.03;;
6053;SDS011;3055;50.886;14.814;2024-03-29T12:55:24;0.90;;;0.90;;
6053;SDS011;3055;50.886;14.814;2024-03-29T12:57:56;2.20;;;1.10;;
6053;SDS011;3055;50.886;14.814;2024-03-29T13:00:25;1.20;;;1.10;;
6053;SDS011;3055;50.886;14.814;2024-03-29T13:02:52;2.20;;;1.10;;
6053;SDS011;3055;50.886;14.814;2024-03-29T13:05:21;1.83;;;1.10;;
6053;SDS011;3055;50.886;14.814;2024-03-29T13:07:48;1.10;;;0.90;;
6053;SDS011;3055;50.886;14.814;2024-03-29T13:10:16;2.20;;;1.30;;
6053;SDS011;3055;50.886;14.814;2024-03-29T13:12:46;1.80;;;1.13;;
6053;SDS011;3055;50.886;14.814;2024-03-29T13:15:15;2.30;;;1.10;;
6053;SDS011;3055;50.886;14.814;2024-03-29T13:17:44;2.13;;;1.00;;
6053;SDS011;3055;50.886;14.814;2024-03-29T13:20:12;2.20;;;1.07;;
6053;SDS011;3055;50.886;14.814;2024-03-29T13:22:42;2.03;;;0.90;;
6053;SDS011;3055;50.886;14.814;2024-03-29T13:25:11;2.50;;;0.90;;
6053;SDS011;3055;50.886;14.814;2024-03-29T13:27:38;1.23;;;1.00;;
6053;SDS011;3055;50.886;14.814;2024-03-29T13:30:06;1.60;;;1.13;;
6053;SDS011;3055;50.886;14.814;2024-03-29T13:32:34;1.40;;;1.00;;
6053;SDS011;3055;50.886;14.814;2024-03-29T13:35:01;1.17;;;1.07;;
6053;SDS011;3055;50.886;14.814;2024-03-29T13:37:30;2.00;;;1.10;;
6053;SDS011;3055;50.886;14.814;2024-03-29T13:39:59;1.50;;;1.07;;
6053;SDS011;3055;50.886;14.814;2024-03-29T13:42:26;1.67;;;1.10;;
6053;SDS011;3055;50.886;14.814;2024-03-29T13:44:53;1.50;;;1.20;;
6053;SDS011;3055;50.886;14.814;2024-03-29T13:47:20;1.80;;;1.20;;
6053;SDS011;3055;50.886;14.814;2024-03-29T13:49:47;1.47;;;1.33;;
6053;SDS011;3055;50.886;14.814;2024-03-29T13:52:18;1.40;;;1.30;;
6053;SDS011;3055;50.886;14.814;2024-03-29T13:54:45;1.93;;;1.13;;
6053;SDS011;3055;50.886;14.814;2024-03-29T13:57:14;2.63;;;1.13;;
6053;SDS011;3055;50.886;14.814;2024-03-29T13:59:43;1.17;;;1.07;;
6053;SDS011;3055;50.886;14.814;2024-03-29T14:02:11;1.07;;;1.00;;
6053;SDS011;3055;50.886;14.814;2024-03-29T14:04:39;2.80;;;1.40;;
6053;SDS011;3055;50.886;14.814;2024-03-29T14:07:07;2.67;;;1.30;;
6053;SDS011;3055;50.886;14.814;2024-03-29T14:09:36;2.70;;;1.40;;
6053;SDS011;3055;50.886;14.814;2024-03-29T14:12:03;1.40;;;1.20;;
6053;SDS011;3055;50.886;14.814;2024-03-29T14:14:33;1.83;;;1.47;;
6053;SDS011;3055;50.886;14.814;2024-03-29T14:17:00;3.70;;;1.30;;
6053;SDS011;3055;50.886;14.814;2024-03-29T14:19:29;1.20;;;1.10;;
6053;SDS011;3055;50.886;14.814;2024-03-29T14:21:56;0.80;;;0.77;;
6053;SDS011;3055;50.886;14.814;2024-03-29T14:24:23;1.20;;;1.10;;
6053;SDS011;3055;50.886;14.814;2024-03-29T14:26:52;1.93;;;0.90;;
6053;SDS011;3055;50.886;14.814;2024-03-29T14:29:20;1.20;;;1.10;;
6053;SDS011;3055;50.886;14.814;2024-03-29T14:31:49;1.47;;;1.00;;
6053;SDS011;3055;50.886;14.814;2024-03-29T14:34:16;2.60;;;1.37;;
6053;SDS011;3055;50.886;14.814;2024-03-29T14:36:45;1.10;;;0.97;;
6053;SDS011;3055;50.886;14.814;2024-03-29T14:39:12;1.50;;;1.13;;
6053;SDS011;3055;50.886;14.814;2024-03-29T14:41:39;1.20;;;1.10;;
6053;SDS011;3055;50.886;14.814;2024-03-29T14:44:07;1.53;;;1.20;;
6053;SDS011;3055;50.886;14.814;2024-03-29T14:46:34;4.10;;;1.20;;
6053;SDS011;3055;50.886;14.814;2024-03-29T14:49:02;2.23;;;1.20;;
6053;SDS011;3055;50.886;14.814;2024-03-29T14:51:32;1.00;;;1.00;;
6053;SDS011;3055;50.886;14.814;2024-03-29T14:53:59;1.20;;;1.10;;
6053;SDS011;3055;50.886;14.814;2024-03-29T14:56:28;1.23;;;1.13;;
6053;SDS011;3055;50.886;14.814;2024-03-29T14:58:56;1.83;;;1.33;;
6053;SDS011;3055;50.886;14.814;2024-03-29T15:01:23;1.93;;;1.30;;
6053;SDS011;3055;50.886;14.814;2024-03-29T15:03:50;1.30;;;1.20;;
6053;SDS011;3055;50.886;14.814;2024-03-29T15:06:19;2.27;;;1.30;;